CST,Max TemperatureF,Mean TemperatureF,Min TemperatureF,Max Dew PointF,MeanDew PointF,Min DewpointF,Max Humidity, Mean Humidity, Min Humidity, Max Sea Level PressureIn, Mean Sea Level PressureIn, Min Sea Level PressureIn, Max VisibilityMiles, Mean VisibilityMiles, Min VisibilityMiles, Max Wind SpeedMPH, Mean Wind SpeedMPH, Max Gust SpeedMPH,PrecipitationIn, CloudCover, Events, WindDirDegrees
2012-11-1,59,46,32,35,28,20,64,52,40,29.97,29.92,29.84,10,10,9,16,6,24,0.00,4,,291
2012-11-2,48,39,29,30,28,25,85,67,49,30.15,30.08,29.98,10,10,10,10,4,14,0.00,0,,66
2012-11-3,50,38,26,34,31,26,92,74,56,30.24,30.18,30.12,10,10,8,14,6,17,0.00,6,,72
2012-11-4,50,38,26,34,31,25,92,73,54,30.27,30.23,30.18,10,9,7,5,0,8,0.00,5,,175
2012-11-5,48,41,33,33,31,27,85,69,53,30.20,30.16,30.11,10,9,7,16,6,22,0.00,5,,99
2012-11-6,44,41,37,41,37,30,96,86,76,30.11,29.93,29.85,10,6,1,14,6,18,0.21,8,Rain,227
2012-11-7,44,41,38,38,36,33,92,79,65,30.18,30.07,29.89,10,10,9,12,5,15,T,8,,334
2012-11-8,52,44,35,38,35,31,92,74,56,30.20,30.12,30.04,10,10,4,15,7,21,0.00,2,,159
2012-11-9,58,46,34,48,42,33,92,77,61,30.04,29.97,29.91,10,9,7,13,7,15,0.00,5,,101
2012-11-10,71,62,53,54,51,46,86,67,48,29.91,29.82,29.76,10,10,9,28,12,40,T,3,,169
2012-11-11,66,49,31,57,45,24,100,80,60,30.05,29.81,29.64,10,7,2,29,15,39,0.65,7,Rain,251
2012-11-12,36,30,23,21,19,15,74,63,52,30.40,30.23,30.06,10,10,10,24,15,32,0.00,3,,269
2012-11-13,43,32,20,25,21,17,88,66,43,30.52,30.47,30.40,10,10,10,9,3,13,0.00,0,,195
2012-11-14,52,41,30,31,27,25,78,61,44,30.47,30.40,30.35,10,10,10,14,5,18,0.00,0,,160
2012-11-15,54,41,28,29,28,25,85,62,38,30.37,30.34,30.29,10,10,9,13,3,16,0.00,0,,186
2012-11-16,56,41,26,35,30,24,92,69,46,30.47,30.43,30.37,10,8,5,5,1,6,0.00,0,,100
2012-11-17,56,41,26,33,30,24,92,65,38,30.51,30.45,30.40,10,8,5,12,5,17,0.00,0,,132
2012-11-18,60,43,26,35,32,25,92,63,33,30.40,30.33,30.26,10,9,3,14,7,17,0.00,0,,136
2012-11-19,54,46,38,45,40,33,80,70,60,30.25,30.15,30.08,10,10,9,14,6,20,T,6,,159
2012-11-20,61,49,37,48,44,37,100,80,60,30.20,30.14,30.06,10,4,0,13,2,15,0.00,3,Fog,294
2012-11-21,63,49,35,47,41,35,100,74,48,30.24,30.16,30.03,10,4,0,17,7,23,0.00,2,Fog,203
2012-11-22,63,52,40,50,41,31,80,66,52,30.03,29.90,29.77,10,9,6,28,15,37,0.05,2,Rain,222
2012-11-23,40,32,23,31,18,13,74,61,47,30.33,30.21,30.02,10,10,10,33,18,46,0.00,2,,293
2012-11-24,32,25,17,20,17,14,84,71,58,30.33,30.19,29.93,10,10,10,14,8,18,0.00,1,,246
2012-11-25,43,35,26,27,24,20,81,65,49,30.12,29.96,29.86,10,10,10,14,6,18,0.00,2,,292
2012-11-26,34,27,20,23,17,11,69,59,49,30.44,30.31,30.14,10,10,10,17,7,21,0.00,2,,332
2012-11-27,34,24,13,16,13,9,88,66,43,30.47,30.37,30.29,10,10,9,12,4,15,0.00,2,,232
2012-11-28,47,33,19,25,20,15,84,61,37,30.42,30.33,30.25,10,10,10,9,4,12,0.00,1,,214
2012-11-29,54,40,26,34,30,24,79,63,46,30.24,30.12,30.02,10,10,9,13,4,16,0.00,2,,145
2012-11-30,54,41,27,35,32,26,92,71,50,30.12,30.07,30.01,10,9,7,10,4,13,0.00,0,,77